Terminal Aerodrome Forecast
Issued by NWS

Home | Current Version | Previous Version | Text Only | Print | Product List | Glossary On
Versions: 1 2 3 4 5 6 7 8 9 10 11 12
000
FTUS45 KABQ 152300 RRA
TAFFMN
TAF
KFMN 152344Z 1600/1624 21008KT P6SM SCT110 SCT200
      TEMPO 1600/1602 VRB15G30KT -TSRA BKN080CB
     FM160300 11010KT P6SM BKN100
     FM160700 09008KT P6SM SCT110 BKN150
     FM162000 15008KT P6SM FEW080
     FM162300 18007KT P6SM SCT080 SCT150=

USA.gov is the U.S. government's official web portal to all federal, state and local government web resources and services.